sensor_id;sensor_type;location;lat;lon;timestamp;temperature;humidity
38428;DHT22;24211;49.980;19.776;2022-07-23T00:00:32;27.10;74.40
38428;DHT22;24211;49.980;19.776;2022-07-23T00:03:06;27.10;74.40
38428;DHT22;24211;49.980;19.776;2022-07-23T00:05:34;27.00;74.10
38428;DHT22;24211;49.980;19.776;2022-07-23T00:08:04;27.00;74.10
38428;DHT22;24211;49.980;19.776;2022-07-23T00:10:40;26.90;74.10
38428;DHT22;24211;49.980;19.776;2022-07-23T00:13:08;26.90;74.20
38428;DHT22;24211;49.980;19.776;2022-07-23T00:15:35;26.80;74.20
38428;DHT22;24211;49.980;19.776;2022-07-23T00:18:03;26.80;74.40
38428;DHT22;24211;49.980;19.776;2022-07-23T00:20:30;26.70;74.30
38428;DHT22;24211;49.980;19.776;2022-07-23T00:22:58;26.70;74.50
38428;DHT22;24211;49.980;19.776;2022-07-23T00:25:26;26.60;74.40
38428;DHT22;24211;49.980;19.776;2022-07-23T00:27:58;26.60;74.80
38428;DHT22;24211;49.980;19.776;2022-07-23T00:30:31;26.50;74.90
38428;DHT22;24211;49.980;19.776;2022-07-23T00:33:04;26.40;74.80
38428;DHT22;24211;49.980;19.776;2022-07-23T00:35:35;26.40;75.40
38428;DHT22;24211;49.980;19.776;2022-07-23T00:38:04;26.30;74.70
38428;DHT22;24211;49.980;19.776;2022-07-23T00:40:32;26.30;74.90
38428;DHT22;24211;49.980;19.776;2022-07-23T00:43:00;26.20;75.00
38428;DHT22;24211;49.980;19.776;2022-07-23T00:45:28;26.20;75.10
38428;DHT22;24211;49.980;19.776;2022-07-23T00:47:56;26.10;75.20
38428;DHT22;24211;49.980;19.776;2022-07-23T00:50:25;26.00;75.40
38428;DHT22;24211;49.980;19.776;2022-07-23T00:52:52;26.00;75.70
38428;DHT22;24211;49.980;19.776;2022-07-23T00:55:20;25.90;75.60
38428;DHT22;24211;49.980;19.776;2022-07-23T00:57:48;25.90;75.60
38428;DHT22;24211;49.980;19.776;2022-07-23T01:00:15;25.90;75.60
38428;DHT22;24211;49.980;19.776;2022-07-23T01:02:42;25.80;75.70
38428;DHT22;24211;49.980;19.776;2022-07-23T01:05:10;25.80;75.80
38428;DHT22;24211;49.980;19.776;2022-07-23T01:07:39;25.80;75.90
38428;DHT22;24211;49.980;19.776;2022-07-23T01:10:07;25.70;75.80
38428;DHT22;24211;49.980;19.776;2022-07-23T01:12:57;25.70;75.80
38428;DHT22;24211;49.980;19.776;2022-07-23T01:15:29;25.60;75.80
38428;DHT22;24211;49.980;19.776;2022-07-23T01:17:58;25.50;75.90
38428;DHT22;24211;49.980;19.776;2022-07-23T01:20:27;25.50;76.00
38428;DHT22;24211;49.980;19.776;2022-07-23T01:22:55;25.40;76.00
38428;DHT22;24211;49.980;19.776;2022-07-23T01:25:24;25.40;76.10
38428;DHT22;24211;49.980;19.776;2022-07-23T01:27:58;25.40;76.10
38428;DHT22;24211;49.980;19.776;2022-07-23T01:30:26;25.30;76.10
38428;DHT22;24211;49.980;19.776;2022-07-23T01:32:55;25.30;76.10
38428;DHT22;24211;49.980;19.776;2022-07-23T01:35:23;25.20;76.20
38428;DHT22;24211;49.980;19.776;2022-07-23T01:37:54;25.10;76.30
38428;DHT22;24211;49.980;19.776;2022-07-23T01:40:22;25.10;76.30
38428;DHT22;24211;49.980;19.776;2022-07-23T01:42:51;25.00;76.30
38428;DHT22;24211;49.980;19.776;2022-07-23T01:45:19;25.00;76.40
38428;DHT22;24211;49.980;19.776;2022-07-23T01:47:50;25.00;76.60
38428;DHT22;24211;49.980;19.776;2022-07-23T01:50:18;24.90;76.70
38428;DHT22;24211;49.980;19.776;2022-07-23T01:53:21;24.80;76.80
38428;DHT22;24211;49.980;19.776;2022-07-23T01:55:48;24.80;76.90
38428;DHT22;24211;49.980;19.776;2022-07-23T01:58:15;24.70;76.90
38428;DHT22;24211;49.980;19.776;2022-07-23T02:00:43;24.70;76.90
38428;DHT22;24211;49.980;19.776;2022-07-23T02:03:10;24.70;76.90
38428;DHT22;24211;49.980;19.776;2022-07-23T02:05:37;24.60;77.10
38428;DHT22;24211;49.980;19.776;2022-07-23T02:08:05;24.60;76.90
38428;DHT22;24211;49.980;19.776;2022-07-23T02:10:35;24.50;77.00
38428;DHT22;24211;49.980;19.776;2022-07-23T02:13:03;24.50;77.10
38428;DHT22;24211;49.980;19.776;2022-07-23T02:15:31;24.50;77.20
38428;DHT22;24211;49.980;19.776;2022-07-23T02:17:59;24.40;77.30
38428;DHT22;24211;49.980;19.776;2022-07-23T02:20:26;24.30;77.30
38428;DHT22;24211;49.980;19.776;2022-07-23T02:22:54;24.30;77.30
38428;DHT22;24211;49.980;19.776;2022-07-23T02:25:21;24.30;77.40
38428;DHT22;24211;49.980;19.776;2022-07-23T02:27:55;24.20;77.40
38428;DHT22;24211;49.980;19.776;2022-07-23T02:30:23;24.20;77.50
38428;DHT22;24211;49.980;19.776;2022-07-23T02:32:51;24.10;77.50
38428;DHT22;24211;49.980;19.776;2022-07-23T02:35:18;24.00;77.80
38428;DHT22;24211;49.980;19.776;2022-07-23T02:37:45;24.00;77.80
38428;DHT22;24211;49.980;19.776;2022-07-23T02:40:15;24.00;78.00
38428;DHT22;24211;49.980;19.776;2022-07-23T02:42:43;23.90;78.10
38428;DHT22;24211;49.980;19.776;2022-07-23T02:45:10;23.80;78.00
38428;DHT22;24211;49.980;19.776;2022-07-23T02:47:39;23.80;78.00
38428;DHT22;24211;49.980;19.776;2022-07-23T02:50:07;23.80;78.00
38428;DHT22;24211;49.980;19.776;2022-07-23T02:52:34;23.80;78.20
38428;DHT22;24211;49.980;19.776;2022-07-23T02:55:02;23.70;78.30
38428;DHT22;24211;49.980;19.776;2022-07-23T02:57:30;23.70;78.70
38428;DHT22;24211;49.980;19.776;2022-07-23T02:59:57;23.70;78.60
38428;DHT22;24211;49.980;19.776;2022-07-23T03:02:24;23.60;78.50
38428;DHT22;24211;49.980;19.776;2022-07-23T03:04:52;23.60;78.50
38428;DHT22;24211;49.980;19.776;2022-07-23T03:07:19;23.50;78.50
38428;DHT22;24211;49.980;19.776;2022-07-23T03:09:48;23.50;78.50
38428;DHT22;24211;49.980;19.776;2022-07-23T03:12:15;23.50;78.50
38428;DHT22;24211;49.980;19.776;2022-07-23T03:14:42;23.50;78.50
38428;DHT22;24211;49.980;19.776;2022-07-23T03:17:09;23.40;78.50
38428;DHT22;24211;49.980;19.776;2022-07-23T03:19:37;23.40;78.60
38428;DHT22;24211;49.980;19.776;2022-07-23T03:22:07;23.30;78.70
38428;DHT22;24211;49.980;19.776;2022-07-23T03:24:34;23.30;78.60
38428;DHT22;24211;49.980;19.776;2022-07-23T03:27:25;23.30;78.80
38428;DHT22;24211;49.980;19.776;2022-07-23T03:29:56;23.30;78.80
38428;DHT22;24211;49.980;19.776;2022-07-23T03:32:25;23.30;79.00
38428;DHT22;24211;49.980;19.776;2022-07-23T03:34:55;23.20;79.00
38428;DHT22;24211;49.980;19.776;2022-07-23T03:37:23;23.20;79.20
38428;DHT22;24211;49.980;19.776;2022-07-23T03:39:51;23.20;79.40
38428;DHT22;24211;49.980;19.776;2022-07-23T03:42:18;23.20;79.50
38428;DHT22;24211;49.980;19.776;2022-07-23T03:44:46;23.20;79.40
38428;DHT22;24211;49.980;19.776;2022-07-23T03:47:13;23.20;79.40
38428;DHT22;24211;49.980;19.776;2022-07-23T03:49:41;23.20;79.50
38428;DHT22;24211;49.980;19.776;2022-07-23T03:52:08;23.10;79.60
38428;DHT22;24211;49.980;19.776;2022-07-23T03:54:36;23.20;79.60
38428;DHT22;24211;49.980;19.776;2022-07-23T03:57:03;23.20;79.60
38428;DHT22;24211;49.980;19.776;2022-07-23T03:59:32;23.20;80.00
38428;DHT22;24211;49.980;19.776;2022-07-23T04:01:59;23.20;79.90
38428;DHT22;24211;49.980;19.776;2022-07-23T04:04:29;23.30;79.90
38428;DHT22;24211;49.980;19.776;2022-07-23T04:06:57;23.30;79.90
38428;DHT22;24211;49.980;19.776;2022-07-23T04:09:25;23.30;80.00
38428;DHT22;24211;49.980;19.776;2022-07-23T04:11:52;23.40;79.90
38428;DHT22;24211;49.980;19.776;2022-07-23T04:14:19;23.50;80.00
38428;DHT22;24211;49.980;19.776;2022-07-23T04:16:47;23.50;80.00
38428;DHT22;24211;49.980;19.776;2022-07-23T04:19:14;23.60;80.30
38428;DHT22;24211;49.980;19.776;2022-07-23T04:21:54;23.60;79.80
38428;DHT22;24211;49.980;19.776;2022-07-23T04:24:21;23.70;80.10
38428;DHT22;24211;49.980;19.776;2022-07-23T04:26:51;23.80;80.10
38428;DHT22;24211;49.980;19.776;2022-07-23T04:29:19;23.90;79.90
38428;DHT22;24211;49.980;19.776;2022-07-23T04:31:47;24.00;80.00
38428;DHT22;24211;49.980;19.776;2022-07-23T04:34:14;24.10;79.70
38428;DHT22;24211;49.980;19.776;2022-07-23T04:36:41;24.20;79.60
38428;DHT22;24211;49.980;19.776;2022-07-23T04:39:09;24.30;79.60
38428;DHT22;24211;49.980;19.776;2022-07-23T04:41:36;24.40;78.80
38428;DHT22;24211;49.980;19.776;2022-07-23T04:44:04;24.50;78.70
38428;DHT22;24211;49.980;19.776;2022-07-23T04:46:32;24.60;79.10
38428;DHT22;24211;49.980;19.776;2022-07-23T04:49:01;24.80;78.70
38428;DHT22;24211;49.980;19.776;2022-07-23T04:51:30;24.80;79.00
38428;DHT22;24211;49.980;19.776;2022-07-23T04:53:59;25.00;78.80
38428;DHT22;24211;49.980;19.776;2022-07-23T04:56:29;25.10;79.00
38428;DHT22;24211;49.980;19.776;2022-07-23T04:58:57;25.30;79.10
38428;DHT22;24211;49.980;19.776;2022-07-23T05:01:25;25.40;78.90
38428;DHT22;24211;49.980;19.776;2022-07-23T05:03:53;25.50;79.10
38428;DHT22;24211;49.980;19.776;2022-07-23T05:06:23;25.60;78.90
38428;DHT22;24211;49.980;19.776;2022-07-23T05:08:50;25.70;78.50
38428;DHT22;24211;49.980;19.776;2022-07-23T05:11:18;25.80;78.60
38428;DHT22;24211;49.980;19.776;2022-07-23T05:13:52;26.00;78.80
38428;DHT22;24211;49.980;19.776;2022-07-23T05:16:20;26.20;78.40
38428;DHT22;24211;49.980;19.776;2022-07-23T05:18:48;26.30;79.10
38428;DHT22;24211;49.980;19.776;2022-07-23T05:21:16;26.50;78.90
38428;DHT22;24211;49.980;19.776;2022-07-23T05:23:44;26.60;79.50
38428;DHT22;24211;49.980;19.776;2022-07-23T05:26:11;26.80;79.30
38428;DHT22;24211;49.980;19.776;2022-07-23T05:28:39;27.00;78.90
38428;DHT22;24211;49.980;19.776;2022-07-23T05:31:07;27.20;79.20
38428;DHT22;24211;49.980;19.776;2022-07-23T05:33:35;27.40;78.60
38428;DHT22;24211;49.980;19.776;2022-07-23T05:36:04;27.50;79.50
38428;DHT22;24211;49.980;19.776;2022-07-23T05:38:35;27.70;79.60
38428;DHT22;24211;49.980;19.776;2022-07-23T05:41:03;27.80;78.60
38428;DHT22;24211;49.980;19.776;2022-07-23T05:43:31;27.90;78.10
38428;DHT22;24211;49.980;19.776;2022-07-23T05:46:05;28.00;78.20
38428;DHT22;24211;49.980;19.776;2022-07-23T05:48:35;28.10;78.20
38428;DHT22;24211;49.980;19.776;2022-07-23T05:51:08;28.10;77.70
38428;DHT22;24211;49.980;19.776;2022-07-23T05:53:36;28.20;77.70
38428;DHT22;24211;49.980;19.776;2022-07-23T05:56:18;28.30;77.50
38428;DHT22;24211;49.980;19.776;2022-07-23T05:58:45;28.40;77.10
38428;DHT22;24211;49.980;19.776;2022-07-23T06:01:15;28.60;77.10
38428;DHT22;24211;49.980;19.776;2022-07-23T06:03:50;28.70;77.00
38428;DHT22;24211;49.980;19.776;2022-07-23T06:06:17;28.90;77.50
38428;DHT22;24211;49.980;19.776;2022-07-23T06:08:45;29.10;77.00
38428;DHT22;24211;49.980;19.776;2022-07-23T06:11:14;29.40;76.90
38428;DHT22;24211;49.980;19.776;2022-07-23T06:13:41;29.60;76.60
38428;DHT22;24211;49.980;19.776;2022-07-23T06:16:09;29.80;75.80
38428;DHT22;24211;49.980;19.776;2022-07-23T06:18:37;30.10;76.00
38428;DHT22;24211;49.980;19.776;2022-07-23T06:21:04;30.30;75.60
38428;DHT22;24211;49.980;19.776;2022-07-23T06:23:52;30.50;75.20
38428;DHT22;24211;49.980;19.776;2022-07-23T06:26:19;30.70;74.90
38428;DHT22;24211;49.980;19.776;2022-07-23T06:28:46;30.80;74.60
38428;DHT22;24211;49.980;19.776;2022-07-23T06:31:14;31.00;74.80
38428;DHT22;24211;49.980;19.776;2022-07-23T06:33:41;31.30;75.00
38428;DHT22;24211;49.980;19.776;2022-07-23T06:36:08;31.50;74.70
38428;DHT22;24211;49.980;19.776;2022-07-23T06:38:36;31.80;74.30
38428;DHT22;24211;49.980;19.776;2022-07-23T06:41:03;32.10;73.80
38428;DHT22;24211;49.980;19.776;2022-07-23T06:43:31;32.40;73.70
38428;DHT22;24211;49.980;19.776;2022-07-23T06:45:58;32.70;73.30
38428;DHT22;24211;49.980;19.776;2022-07-23T06:48:31;33.10;72.80
38428;DHT22;24211;49.980;19.776;2022-07-23T06:50:58;33.20;72.10
38428;DHT22;24211;49.980;19.776;2022-07-23T06:53:28;33.50;72.10
38428;DHT22;24211;49.980;19.776;2022-07-23T06:55:55;33.80;71.60
38428;DHT22;24211;49.980;19.776;2022-07-23T06:58:23;33.90;71.30
38428;DHT22;24211;49.980;19.776;2022-07-23T07:00:50;34.20;71.00
38428;DHT22;24211;49.980;19.776;2022-07-23T07:03:19;34.30;70.70
38428;DHT22;24211;49.980;19.776;2022-07-23T07:05:47;34.50;70.40
38428;DHT22;24211;49.980;19.776;2022-07-23T07:08:14;34.60;70.30
38428;DHT22;24211;49.980;19.776;2022-07-23T07:10:42;34.70;70.00
38428;DHT22;24211;49.980;19.776;2022-07-23T07:13:09;34.80;69.70
38428;DHT22;24211;49.980;19.776;2022-07-23T07:15:36;35.00;69.60
38428;DHT22;24211;49.980;19.776;2022-07-23T07:18:03;35.20;69.70
38428;DHT22;24211;49.980;19.776;2022-07-23T07:20:31;35.50;69.10
38428;DHT22;24211;49.980;19.776;2022-07-23T07:22:58;35.90;68.60
38428;DHT22;24211;49.980;19.776;2022-07-23T07:25:25;36.00;67.70
38428;DHT22;24211;49.980;19.776;2022-07-23T07:27:53;36.20;67.80
38428;DHT22;24211;49.980;19.776;2022-07-23T07:30:20;36.20;67.90
38428;DHT22;24211;49.980;19.776;2022-07-23T07:32:47;36.40;67.00
38428;DHT22;24211;49.980;19.776;2022-07-23T07:35:25;36.60;67.30
38428;DHT22;24211;49.980;19.776;2022-07-23T07:37:52;36.50;67.40
38428;DHT22;24211;49.980;19.776;2022-07-23T07:40:19;36.40;67.30
38428;DHT22;24211;49.980;19.776;2022-07-23T07:42:51;36.70;67.10
38428;DHT22;24211;49.980;19.776;2022-07-23T07:45:21;36.90;66.90
38428;DHT22;24211;49.980;19.776;2022-07-23T07:47:49;37.00;66.80
38428;DHT22;24211;49.980;19.776;2022-07-23T07:50:16;37.10;66.70
38428;DHT22;24211;49.980;19.776;2022-07-23T07:52:45;37.30;66.70
38428;DHT22;24211;49.980;19.776;2022-07-23T07:55:12;37.40;66.20
38428;DHT22;24211;49.980;19.776;2022-07-23T07:57:40;37.50;66.60
38428;DHT22;24211;49.980;19.776;2022-07-23T08:00:16;37.70;66.50
38428;DHT22;24211;49.980;19.776;2022-07-23T08:02:45;37.60;66.40
38428;DHT22;24211;49.980;19.776;2022-07-23T08:05:28;37.80;65.90
38428;DHT22;24211;49.980;19.776;2022-07-23T08:07:58;38.10;65.80
38428;DHT22;24211;49.980;19.776;2022-07-23T08:10:27;38.40;65.30
38428;DHT22;24211;49.980;19.776;2022-07-23T08:12:57;38.60;65.20
38428;DHT22;24211;49.980;19.776;2022-07-23T08:15:28;38.80;65.10
38428;DHT22;24211;49.980;19.776;2022-07-23T08:17:57;38.90;65.00
38428;DHT22;24211;49.980;19.776;2022-07-23T08:20:25;39.50;65.30
38428;DHT22;24211;49.980;19.776;2022-07-23T08:22:57;39.10;64.80
38428;DHT22;24211;49.980;19.776;2022-07-23T08:25:29;39.20;64.90
38428;DHT22;24211;49.980;19.776;2022-07-23T08:28:15;39.60;64.60
38428;DHT22;24211;49.980;19.776;2022-07-23T08:30:44;39.60;64.00
38428;DHT22;24211;49.980;19.776;2022-07-23T08:33:14;39.70;64.10
38428;DHT22;24211;49.980;19.776;2022-07-23T08:36:02;39.80;64.00
38428;DHT22;24211;49.980;19.776;2022-07-23T08:38:32;40.00;64.00
38428;DHT22;24211;49.980;19.776;2022-07-23T08:41:00;40.20;63.80
38428;DHT22;24211;49.980;19.776;2022-07-23T08:43:32;40.50;63.50
38428;DHT22;24211;49.980;19.776;2022-07-23T08:46:03;40.70;63.20
38428;DHT22;24211;49.980;19.776;2022-07-23T08:48:33;41.00;63.20
38428;DHT22;24211;49.980;19.776;2022-07-23T08:51:06;41.10;62.80
38428;DHT22;24211;49.980;19.776;2022-07-23T08:53:34;41.00;62.80
38428;DHT22;24211;49.980;19.776;2022-07-23T08:56:04;41.20;62.30
38428;DHT22;24211;49.980;19.776;2022-07-23T08:58:34;41.10;62.10
38428;DHT22;24211;49.980;19.776;2022-07-23T09:01:02;41.40;62.10
38428;DHT22;24211;49.980;19.776;2022-07-23T09:03:35;41.50;62.10
38428;DHT22;24211;49.980;19.776;2022-07-23T09:06:06;41.50;62.10
38428;DHT22;24211;49.980;19.776;2022-07-23T09:08:36;41.50;62.30
38428;DHT22;24211;49.980;19.776;2022-07-23T09:11:07;41.60;62.60
38428;DHT22;24211;49.980;19.776;2022-07-23T09:13:49;41.50;62.00
38428;DHT22;24211;49.980;19.776;2022-07-23T09:16:30;41.50;62.00
38428;DHT22;24211;49.980;19.776;2022-07-23T09:19:05;41.50;62.30
38428;DHT22;24211;49.980;19.776;2022-07-23T09:21:38;41.50;61.90
38428;DHT22;24211;49.980;19.776;2022-07-23T09:24:11;41.70;61.70
38428;DHT22;24211;49.980;19.776;2022-07-23T09:26:46;41.70;61.80
38428;DHT22;24211;49.980;19.776;2022-07-23T09:29:21;41.80;62.20
38428;DHT22;24211;49.980;19.776;2022-07-23T09:31:55;41.80;61.00
38428;DHT22;24211;49.980;19.776;2022-07-23T09:34:29;41.90;61.00
38428;DHT22;24211;49.980;19.776;2022-07-23T09:37:12;42.10;61.50
38428;DHT22;24211;49.980;19.776;2022-07-23T09:39:43;42.00;61.60
38428;DHT22;24211;49.980;19.776;2022-07-23T09:44:48;42.20;60.30
38428;DHT22;24211;49.980;19.776;2022-07-23T09:47:18;42.40;60.40
38428;DHT22;24211;49.980;19.776;2022-07-23T09:50:06;42.50;59.70
38428;DHT22;24211;49.980;19.776;2022-07-23T09:52:43;42.60;59.10
38428;DHT22;24211;49.980;19.776;2022-07-23T09:55:13;42.80;58.90
38428;DHT22;24211;49.980;19.776;2022-07-23T09:57:42;43.00;58.60
38428;DHT22;24211;49.980;19.776;2022-07-23T10:00:23;43.20;58.40
38428;DHT22;24211;49.980;19.776;2022-07-23T10:02:51;43.40;59.50
38428;DHT22;24211;49.980;19.776;2022-07-23T10:05:42;43.40;59.70
38428;DHT22;24211;49.980;19.776;2022-07-23T10:08:12;43.40;59.40
38428;DHT22;24211;49.980;19.776;2022-07-23T10:10:58;43.60;58.90
38428;DHT22;24211;49.980;19.776;2022-07-23T10:13:46;43.90;59.30
38428;DHT22;24211;49.980;19.776;2022-07-23T10:16:48;44.00;59.10
38428;DHT22;24211;49.980;19.776;2022-07-23T10:19:17;44.20;58.50
38428;DHT22;24211;49.980;19.776;2022-07-23T10:22:00;44.40;58.20
38428;DHT22;24211;49.980;19.776;2022-07-23T10:24:53;44.50;57.80
38428;DHT22;24211;49.980;19.776;2022-07-23T10:28:18;44.60;57.20
38428;DHT22;24211;49.980;19.776;2022-07-23T10:31:20;44.70;57.50
38428;DHT22;24211;49.980;19.776;2022-07-23T10:34:35;44.90;57.40
38428;DHT22;24211;49.980;19.776;2022-07-23T10:37:23;45.20;56.80
38428;DHT22;24211;49.980;19.776;2022-07-23T10:42:45;45.20;58.10
38428;DHT22;24211;49.980;19.776;2022-07-23T10:45:34;45.30;56.60
38428;DHT22;24211;49.980;19.776;2022-07-23T10:51:12;45.30;57.30
38428;DHT22;24211;49.980;19.776;2022-07-23T10:56:50;45.20;57.30
38428;DHT22;24211;49.980;19.776;2022-07-23T11:02:30;45.30;56.40
38428;DHT22;24211;49.980;19.776;2022-07-23T11:05:10;45.50;57.00
38428;DHT22;24211;49.980;19.776;2022-07-23T11:10:39;45.90;56.00
38428;DHT22;24211;49.980;19.776;2022-07-23T11:23:59;46.70;54.90
38428;DHT22;24211;49.980;19.776;2022-07-23T11:31:59;47.20;53.40
38428;DHT22;24211;49.980;19.776;2022-07-23T11:34:47;47.50;52.40
38428;DHT22;24211;49.980;19.776;2022-07-23T11:37:39;47.80;51.30
38428;DHT22;24211;49.980;19.776;2022-07-23T11:40:12;47.70;51.10
38428;DHT22;24211;49.980;19.776;2022-07-23T11:43:03;47.50;51.10
38428;DHT22;24211;49.980;19.776;2022-07-23T11:45:37;47.50;51.20
38428;DHT22;24211;49.980;19.776;2022-07-23T11:48:09;47.40;51.20
38428;DHT22;24211;49.980;19.776;2022-07-23T11:50:42;47.20;50.90
38428;DHT22;24211;49.980;19.776;2022-07-23T11:53:10;47.20;51.00
38428;DHT22;24211;49.980;19.776;2022-07-23T11:55:38;47.00;51.10
38428;DHT22;24211;49.980;19.776;2022-07-23T11:58:05;46.90;51.60
38428;DHT22;24211;49.980;19.776;2022-07-23T12:00:33;46.70;52.10
38428;DHT22;24211;49.980;19.776;2022-07-23T12:03:06;46.80;52.60
38428;DHT22;24211;49.980;19.776;2022-07-23T12:05:36;46.70;53.10
38428;DHT22;24211;49.980;19.776;2022-07-23T12:08:06;46.60;53.40
38428;DHT22;24211;49.980;19.776;2022-07-23T12:10:40;46.70;53.30
38428;DHT22;24211;49.980;19.776;2022-07-23T12:13:12;46.80;53.60
38428;DHT22;24211;49.980;19.776;2022-07-23T12:15:45;46.90;53.20
38428;DHT22;24211;49.980;19.776;2022-07-23T12:18:18;47.20;52.30
38428;DHT22;24211;49.980;19.776;2022-07-23T12:20:51;47.50;51.30
38428;DHT22;24211;49.980;19.776;2022-07-23T12:23:22;47.80;50.80
38428;DHT22;24211;49.980;19.776;2022-07-23T12:25:51;47.80;50.90
38428;DHT22;24211;49.980;19.776;2022-07-23T12:28:31;47.70;51.30
38428;DHT22;24211;49.980;19.776;2022-07-23T12:31:00;47.60;51.40
38428;DHT22;24211;49.980;19.776;2022-07-23T12:33:32;47.80;50.70
38428;DHT22;24211;49.980;19.776;2022-07-23T12:36:04;48.00;50.50
38428;DHT22;24211;49.980;19.776;2022-07-23T12:38:48;47.90;50.30
38428;DHT22;24211;49.980;19.776;2022-07-23T12:41:16;48.00;50.40
38428;DHT22;24211;49.980;19.776;2022-07-23T12:43:46;47.90;50.10
38428;DHT22;24211;49.980;19.776;2022-07-23T12:46:20;47.80;50.30
38428;DHT22;24211;49.980;19.776;2022-07-23T12:48:51;47.70;50.70
38428;DHT22;24211;49.980;19.776;2022-07-23T12:51:30;47.50;51.10
38428;DHT22;24211;49.980;19.776;2022-07-23T12:54:06;47.50;51.10
38428;DHT22;24211;49.980;19.776;2022-07-23T12:56:38;47.50;50.80
38428;DHT22;24211;49.980;19.776;2022-07-23T12:59:15;47.50;50.90
38428;DHT22;24211;49.980;19.776;2022-07-23T13:01:54;47.30;51.20
38428;DHT22;24211;49.980;19.776;2022-07-23T13:04:26;47.20;51.50
38428;DHT22;24211;49.980;19.776;2022-07-23T13:06:56;47.10;51.90
38428;DHT22;24211;49.980;19.776;2022-07-23T13:09:29;47.10;51.80
38428;DHT22;24211;49.980;19.776;2022-07-23T13:12:02;47.10;52.30
38428;DHT22;24211;49.980;19.776;2022-07-23T13:14:32;47.20;52.70
38428;DHT22;24211;49.980;19.776;2022-07-23T13:16:59;47.30;52.60
38428;DHT22;24211;49.980;19.776;2022-07-23T13:19:31;47.40;52.70
38428;DHT22;24211;49.980;19.776;2022-07-23T13:21:58;47.50;52.90
38428;DHT22;24211;49.980;19.776;2022-07-23T13:24:30;47.70;52.60
38428;DHT22;24211;49.980;19.776;2022-07-23T13:26:57;47.80;52.60
38428;DHT22;24211;49.980;19.776;2022-07-23T13:29:27;47.60;53.50
38428;DHT22;24211;49.980;19.776;2022-07-23T13:31:54;47.80;52.70
38428;DHT22;24211;49.980;19.776;2022-07-23T13:34:22;47.80;52.30
38428;DHT22;24211;49.980;19.776;2022-07-23T13:36:49;47.90;52.00
38428;DHT22;24211;49.980;19.776;2022-07-23T13:39:16;47.80;51.70
38428;DHT22;24211;49.980;19.776;2022-07-23T13:41:44;47.90;50.70
38428;DHT22;24211;49.980;19.776;2022-07-23T13:44:17;47.60;51.30
38428;DHT22;24211;49.980;19.776;2022-07-23T13:46:48;47.10;52.20
38428;DHT22;24211;49.980;19.776;2022-07-23T13:49:16;46.70;52.30
38428;DHT22;24211;49.980;19.776;2022-07-23T13:51:44;46.40;52.90
38428;DHT22;24211;49.980;19.776;2022-07-23T13:54:11;46.20;53.30
38428;DHT22;24211;49.980;19.776;2022-07-23T13:56:39;46.10;53.60
38428;DHT22;24211;49.980;19.776;2022-07-23T13:59:06;46.00;53.90
38428;DHT22;24211;49.980;19.776;2022-07-23T14:01:33;45.90;53.70
38428;DHT22;24211;49.980;19.776;2022-07-23T14:04:21;45.90;53.80
38428;DHT22;24211;49.980;19.776;2022-07-23T14:06:50;45.90;53.70
38428;DHT22;24211;49.980;19.776;2022-07-23T14:09:21;45.70;54.00
38428;DHT22;24211;49.980;19.776;2022-07-23T14:11:52;45.50;54.10
38428;DHT22;24211;49.980;19.776;2022-07-23T14:14:20;45.30;54.40
38428;DHT22;24211;49.980;19.776;2022-07-23T14:16:48;45.10;54.50
38428;DHT22;24211;49.980;19.776;2022-07-23T14:19:16;44.80;54.50
38428;DHT22;24211;49.980;19.776;2022-07-23T14:21:44;44.60;54.60
38428;DHT22;24211;49.980;19.776;2022-07-23T14:24:11;44.50;54.70
38428;DHT22;24211;49.980;19.776;2022-07-23T14:26:39;44.30;54.80
38428;DHT22;24211;49.980;19.776;2022-07-23T14:29:07;44.00;54.80
38428;DHT22;24211;49.980;19.776;2022-07-23T14:31:35;43.80;55.10
38428;DHT22;24211;49.980;19.776;2022-07-23T14:34:03;43.60;55.30
38428;DHT22;24211;49.980;19.776;2022-07-23T14:36:30;43.30;55.50
38428;DHT22;24211;49.980;19.776;2022-07-23T14:38:58;43.00;55.60
38428;DHT22;24211;49.980;19.776;2022-07-23T14:41:27;42.70;55.70
38428;DHT22;24211;49.980;19.776;2022-07-23T14:43:56;42.60;55.90
38428;DHT22;24211;49.980;19.776;2022-07-23T14:46:23;42.30;56.00
38428;DHT22;24211;49.980;19.776;2022-07-23T14:48:51;42.00;56.00
38428;DHT22;24211;49.980;19.776;2022-07-23T14:51:18;41.90;56.00
38428;DHT22;24211;49.980;19.776;2022-07-23T14:53:46;41.70;56.20
38428;DHT22;24211;49.980;19.776;2022-07-23T14:56:14;40.60;56.70
38428;DHT22;24211;49.980;19.776;2022-07-23T14:58:41;38.40;58.60
38428;DHT22;24211;49.980;19.776;2022-07-23T15:02:05;35.40;67.20
38428;DHT22;24211;49.980;19.776;2022-07-23T18:47:57;29.70;80.20
38428;DHT22;24211;49.980;19.776;2022-07-23T18:50:26;29.60;80.40
38428;DHT22;24211;49.980;19.776;2022-07-23T18:52:53;29.50;80.20
38428;DHT22;24211;49.980;19.776;2022-07-23T18:55:20;29.40;79.90
38428;DHT22;24211;49.980;19.776;2022-07-23T18:57:47;29.30;79.80
38428;DHT22;24211;49.980;19.776;2022-07-23T19:00:15;29.20;80.10
38428;DHT22;24211;49.980;19.776;2022-07-23T19:02:43;29.20;80.30
38428;DHT22;24211;49.980;19.776;2022-07-23T19:16:33;29.10;80.10
38428;DHT22;24211;49.980;19.776;2022-07-23T19:19:01;28.90;80.20
38428;DHT22;24211;49.980;19.776;2022-07-23T19:52:51;28.50;79.60
38428;DHT22;24211;49.980;19.776;2022-07-23T19:55:21;28.30;80.30
38428;DHT22;24211;49.980;19.776;2022-07-23T19:57:49;28.20;80.20
38428;DHT22;24211;49.980;19.776;2022-07-23T20:00:17;28.10;80.40
38428;DHT22;24211;49.980;19.776;2022-07-23T20:02:45;28.10;80.50
38428;DHT22;24211;49.980;19.776;2022-07-23T20:05:21;28.10;80.40
38428;DHT22;24211;49.980;19.776;2022-07-23T20:07:48;28.00;80.40
38428;DHT22;24211;49.980;19.776;2022-07-23T20:10:15;28.00;80.60
38428;DHT22;24211;49.980;19.776;2022-07-23T20:12:43;27.90;80.70
38428;DHT22;24211;49.980;19.776;2022-07-23T20:15:11;27.90;81.40
38428;DHT22;24211;49.980;19.776;2022-07-23T20:21:22;27.80;81.00
38428;DHT22;24211;49.980;19.776;2022-07-23T20:23:49;27.70;80.90
38428;DHT22;24211;49.980;19.776;2022-07-23T20:26:17;27.70;81.00
38428;DHT22;24211;49.980;19.776;2022-07-23T20:28:44;27.70;81.10
38428;DHT22;24211;49.980;19.776;2022-07-23T20:31:11;27.60;81.10
38428;DHT22;24211;49.980;19.776;2022-07-23T20:33:39;27.60;81.10
38428;DHT22;24211;49.980;19.776;2022-07-23T20:36:06;27.50;81.10
38428;DHT22;24211;49.980;19.776;2022-07-23T20:38:34;27.50;81.20
38428;DHT22;24211;49.980;19.776;2022-07-23T20:41:02;27.50;81.80